Time;durP1;ratioP1;P1;durP2;ratioP2;P2;SDS_P1;SDS_P2;PMS_P1;PMS_P2;Temp;Humidity;BMP_temperature;BMP_pressure;BME280_temperature;BME280_humidity;BME280_pressure;Samples;Min_cycle;Max_cycle;Signal;HPM_P1;HPM_P2
2022/10/13 00:01:39;;;;;;;;;;;14.60;87.60;;;;;;5040254;28;19992;-71
2022/10/13 00:04:05;;;;;;;;;;;14.60;87.70;;;;;;5041943;28;20681;-71
2022/10/13 00:06:32;;;;;;;;;;;14.60;87.70;;;;;;5040856;28;19976;-71
2022/10/13 00:08:59;;;;;;;;;;;14.60;87.70;;;;;;5044427;28;19998;-71
2022/10/13 00:11:27;;;;;;;;;;;14.50;87.70;;;;;;5036698;28;20480;-71
2022/10/13 00:13:56;;;;;;;;;;;14.50;87.70;;;;;;5042011;28;20566;-71
2022/10/13 00:16:24;;;;;;;;;;;14.50;87.80;;;;;;5041723;28;20336;-71
2022/10/13 00:18:50;;;;;;;;;;;14.50;87.90;;;;;;5042572;28;19999;-71
2022/10/13 00:21:18;;;;;;;;;;;14.50;87.90;;;;;;5042458;28;20395;-70
2022/10/13 00:23:44;;;;;;;;;;;14.50;87.90;;;;;;5045018;28;19988;-71
2022/10/13 00:26:12;;;;;;;;;;;14.40;88.00;;;;;;5034904;28;19986;-70
2022/10/13 00:28:39;;;;;;;;;;;14.40;88.00;;;;;;5036916;28;19984;-71
2022/10/13 00:31:15;;;;;;;;;;;14.40;88.10;;;;;;5042130;28;20038;-71
2022/10/13 00:33:42;;;;;;;;;;;14.40;88.10;;;;;;5037226;28;19976;-71
2022/10/13 00:36:08;;;;;;;;;;;14.30;88.10;;;;;;5036306;28;19981;-71
2022/10/13 00:38:35;;;;;;;;;;;14.30;88.10;;;;;;5035117;28;19976;-71
2022/10/13 00:41:01;;;;;;;;;;;14.30;88.20;;;;;;5039764;28;19980;-71
2022/10/13 00:43:47;;;;;;;;;;;14.30;88.30;;;;;;5041331;28;19992;-70
2022/10/13 00:46:15;;;;;;;;;;;14.30;88.30;;;;;;5023292;28;20000;-71
2022/10/13 00:48:41;;;;;;;;;;;14.20;88.20;;;;;;5020360;28;19976;-69
2022/10/13 00:51:09;;;;;;;;;;;14.20;88.20;;;;;;5023973;28;20007;-71
2022/10/13 00:53:37;;;;;;;;;;;14.20;89.00;;;;;;5020252;28;19977;-71
2022/10/13 00:56:07;;;;;;;;;;;14.10;88.20;;;;;;5023064;28;21336;-71
2022/10/13 00:58:34;;;;;;;;;;;14.10;88.20;;;;;;5018294;28;20086;-71
2022/10/13 01:01:02;;;;;;;;;;;14.10;88.20;;;;;;5023479;28;20011;-70
2022/10/13 01:03:30;;;;;;;;;;;14.10;88.30;;;;;;5019976;28;20003;-70
2022/10/13 01:05:58;;;;;;;;;;;14.00;88.30;;;;;;5018427;28;19983;-70
2022/10/13 01:08:25;;;;;;;;;;;14.10;88.40;;;;;;5024445;28;20464;-71
2022/10/13 01:10:56;;;;;;;;;;;14.00;89.20;;;;;;5023298;28;20494;-71
2022/10/13 01:13:26;;;;;;;;;;;14.00;88.50;;;;;;5020353;28;20284;-70
2022/10/13 01:15:59;;;;;;;;;;;14.00;88.50;;;;;;5022981;28;19992;-71
2022/10/13 01:18:28;;;;;;;;;;;14.00;88.60;;;;;;5023464;28;19976;-71
2022/10/13 01:21:04;;;;;;;;;;;14.00;88.60;;;;;;5019845;28;19992;-70
2022/10/13 01:23:42;;;;;;;;;;;13.90;88.60;;;;;;5023638;28;19991;-71
2022/10/13 01:26:17;;;;;;;;;;;13.90;88.70;;;;;;5023621;28;19987;-70
2022/10/13 01:28:56;;;;;;;;;;;13.90;88.80;;;;;;5023773;28;19975;-71
2022/10/13 01:31:27;;;;;;;;;;;13.90;88.80;;;;;;5020656;28;19996;-70
2022/10/13 01:33:56;;;;;;;;;;;13.90;88.80;;;;;;5017052;28;19980;-71
2022/10/13 01:36:27;;;;;;;;;;;13.80;88.70;;;;;;5024119;28;19983;-70
2022/10/13 01:38:55;;;;;;;;;;;13.80;88.80;;;;;;5024843;28;20002;-71
2022/10/13 01:41:25;;;;;;;;;;;13.80;88.80;;;;;;5018803;28;19980;-70
2022/10/13 01:43:55;;;;;;;;;;;13.80;88.80;;;;;;5025233;28;20526;-71
2022/10/13 01:46:23;;;;;;;;;;;13.70;88.70;;;;;;5037073;28;20003;-70
2022/10/13 01:48:53;;;;;;;;;;;13.70;88.70;;;;;;5039588;28;20003;-71
2022/10/13 01:51:21;;;;;;;;;;;13.70;88.80;;;;;;5034848;28;19991;-71
2022/10/13 01:53:48;;;;;;;;;;;13.70;88.80;;;;;;5041890;28;19983;-71
2022/10/13 01:56:14;;;;;;;;;;;13.70;88.90;;;;;;5043433;28;19986;-71
2022/10/13 01:58:41;;;;;;;;;;;13.70;89.00;;;;;;5035472;28;19987;-71
2022/10/13 02:01:14;;;;;;;;;;;13.60;88.90;;;;;;5039232;28;19999;-70
2022/10/13 02:03:45;;;;;;;;;;;13.60;89.00;;;;;;5040244;28;19996;-71
2022/10/13 02:06:16;;;;;;;;;;;13.60;89.00;;;;;;5036429;28;19984;-71
2022/10/13 02:08:44;;;;;;;;;;;13.60;89.10;;;;;;5043080;28;19983;-71
2022/10/13 02:11:13;;;;;;;;;;;13.60;89.20;;;;;;5040511;28;20063;-70
2022/10/13 02:13:41;;;;;;;;;;;13.50;89.00;;;;;;5033441;28;20019;-71
2022/10/13 02:16:08;;;;;;;;;;;13.50;89.10;;;;;;5035184;28;20003;-70
2022/10/13 02:18:35;;;;;;;;;;;13.50;89.20;;;;;;5029805;28;19979;-71
2022/10/13 02:21:03;;;;;;;;;;;13.50;89.30;;;;;;5039205;28;20015;-71
2022/10/13 02:23:31;;;;;;;;;;;13.50;89.30;;;;;;5040555;28;19992;-71
2022/10/13 02:25:59;;;;;;;;;;;13.50;89.40;;;;;;5038656;28;19976;-71
2022/10/13 02:28:26;;;;;;;;;;;13.40;89.40;;;;;;5039432;28;20010;-71
2022/10/13 02:30:53;;;;;;;;;;;13.40;89.40;;;;;;5043025;28;20646;-71
2022/10/13 02:33:19;;;;;;;;;;;13.40;89.50;;;;;;5039454;28;19987;-71
2022/10/13 02:35:46;;;;;;;;;;;13.40;89.60;;;;;;5042130;28;19976;-71
2022/10/13 02:38:12;;;;;;;;;;;13.40;89.60;;;;;;5038400;28;19980;-71
2022/10/13 02:40:40;;;;;;;;;;;13.40;89.60;;;;;;5033630;28;19992;-71
2022/10/13 02:43:07;;;;;;;;;;;13.30;89.60;;;;;;5043169;28;20003;-70
2022/10/13 02:45:33;;;;;;;;;;;13.30;90.10;;;;;;5043068;28;19991;-71
2022/10/13 02:48:00;;;;;;;;;;;13.30;89.80;;;;;;5037959;28;19980;-71
2022/10/13 02:50:27;;;;;;;;;;;13.30;89.80;;;;;;5043999;28;19996;-71
2022/10/13 02:52:53;;;;;;;;;;;13.30;89.90;;;;;;5038867;28;19980;-71
2022/10/13 02:55:20;;;;;;;;;;;13.30;90.00;;;;;;5033516;28;19999;-71
2022/10/13 02:57:48;;;;;;;;;;;13.20;90.00;;;;;;5046752;28;19976;-70
2022/10/13 03:00:15;;;;;;;;;;;13.20;90.00;;;;;;5042268;28;20471;-71
2022/10/13 03:02:42;;;;;;;;;;;13.20;90.00;;;;;;5038790;28;19987;-71
2022/10/13 03:05:08;;;;;;;;;;;13.20;90.00;;;;;;5040320;28;20047;-71
2022/10/13 03:07:35;;;;;;;;;;;13.20;90.00;;;;;;5041766;28;20374;-71
2022/10/13 03:10:02;;;;;;;;;;;13.20;90.00;;;;;;5045104;28;19999;-71
2022/10/13 03:12:28;;;;;;;;;;;13.20;90.10;;;;;;5042855;28;20466;-70
2022/10/13 03:14:56;;;;;;;;;;;13.20;90.00;;;;;;5043871;28;19976;-71
2022/10/13 03:17:22;;;;;;;;;;;13.20;90.10;;;;;;5039833;28;20371;-69
2022/10/13 03:19:49;;;;;;;;;;;13.10;90.00;;;;;;5046082;28;20359;-71
2022/10/13 03:22:16;;;;;;;;;;;13.10;90.10;;;;;;5044519;28;19983;-70
2022/10/13 03:24:42;;;;;;;;;;;13.10;90.10;;;;;;5045548;28;19991;-69
2022/10/13 03:27:09;;;;;;;;;;;13.10;90.10;;;;;;5042356;28;19979;-70
2022/10/13 03:29:36;;;;;;;;;;;13.10;90.20;;;;;;5042408;28;19991;-70
2022/10/13 03:32:04;;;;;;;;;;;13.10;90.20;;;;;;5043003;28;20006;-70
2022/10/13 03:34:30;;;;;;;;;;;13.00;90.10;;;;;;5043830;28;19976;-71
2022/10/13 03:36:57;;;;;;;;;;;13.00;90.20;;;;;;5036958;28;19975;-71
2022/10/13 03:39:23;;;;;;;;;;;13.00;90.20;;;;;;5034674;28;19999;-70
2022/10/13 03:41:50;;;;;;;;;;;13.00;90.20;;;;;;5037835;28;19987;-71
2022/10/13 03:44:16;;;;;;;;;;;13.00;90.20;;;;;;5044849;28;19995;-70
2022/10/13 03:46:43;;;;;;;;;;;13.00;90.20;;;;;;5041301;28;19992;-70
2022/10/13 03:49:11;;;;;;;;;;;13.00;90.20;;;;;;5042397;28;19995;-71
2022/10/13 03:51:38;;;;;;;;;;;13.00;90.30;;;;;;5042293;28;19980;-71
2022/10/13 03:54:04;;;;;;;;;;;12.90;90.30;;;;;;5043587;28;19976;-70
2022/10/13 03:56:31;;;;;;;;;;;12.90;90.30;;;;;;5040404;28;19976;-70
2022/10/13 03:58:59;;;;;;;;;;;13.00;90.30;;;;;;5043123;28;20523;-71
2022/10/13 04:01:26;;;;;;;;;;;12.90;90.30;;;;;;5040516;28;20002;-70
2022/10/13 04:03:54;;;;;;;;;;;12.90;90.30;;;;;;5043565;28;20364;-70
2022/10/13 04:06:23;;;;;;;;;;;12.90;90.30;;;;;;5035176;28;20577;-71
2022/10/13 04:08:50;;;;;;;;;;;12.90;90.30;;;;;;5043084;28;19982;-71
2022/10/13 04:11:17;;;;;;;;;;;12.90;90.30;;;;;;5042762;28;20370;-70
2022/10/13 04:13:44;;;;;;;;;;;12.90;90.30;;;;;;5043100;28;19986;-71
2022/10/13 04:16:12;;;;;;;;;;;12.80;90.30;;;;;;5036219;28;20105;-71
2022/10/13 04:18:39;;;;;;;;;;;12.80;90.40;;;;;;5038267;28;19986;-71
2022/10/13 04:21:07;;;;;;;;;;;12.80;90.30;;;;;;5038457;28;19980;-70
2022/10/13 04:23:35;;;;;;;;;;;12.80;90.30;;;;;;5042992;28;19976;-70
2022/10/13 04:26:02;;;;;;;;;;;12.80;90.30;;;;;;5035026;28;19984;-71
2022/10/13 04:28:28;;;;;;;;;;;12.70;90.30;;;;;;5043250;28;20340;-70
2022/10/13 04:30:55;;;;;;;;;;;12.70;90.30;;;;;;5042821;28;20018;-71
2022/10/13 04:33:21;;;;;;;;;;;12.70;90.30;;;;;;5038263;28;19987;-70
2022/10/13 04:35:48;;;;;;;;;;;12.70;90.30;;;;;;5042649;28;19975;-71
2022/10/13 04:38:15;;;;;;;;;;;12.70;90.30;;;;;;5037295;28;21529;-70
2022/10/13 04:40:43;;;;;;;;;;;12.70;90.30;;;;;;5042662;28;20387;-71
2022/10/13 04:43:09;;;;;;;;;;;12.70;90.30;;;;;;5041463;28;20376;-70
2022/10/13 04:45:36;;;;;;;;;;;12.60;90.30;;;;;;5040642;28;20023;-71
2022/10/13 04:48:03;;;;;;;;;;;12.60;90.30;;;;;;5040326;28;19987;-69
2022/10/13 04:50:29;;;;;;;;;;;12.60;90.30;;;;;;5043442;28;19998;-70
2022/10/13 04:52:56;;;;;;;;;;;12.60;90.30;;;;;;5044710;28;19987;-71
2022/10/13 04:55:22;;;;;;;;;;;12.60;90.30;;;;;;5042824;28;19984;-70
2022/10/13 04:57:50;;;;;;;;;;;12.60;90.30;;;;;;5039774;28;19987;-71
2022/10/13 05:00:17;;;;;;;;;;;12.60;90.10;;;;;;5039559;28;20410;-71
2022/10/13 05:02:43;;;;;;;;;;;12.30;89.80;;;;;;5034648;28;19983;-69
2022/10/13 05:05:10;;;;;;;;;;;12.20;90.50;;;;;;5036222;28;19976;-69
2022/10/13 05:07:37;;;;;;;;;;;12.20;90.70;;;;;;5040982;28;19999;-69
2022/10/13 05:10:04;;;;;;;;;;;12.10;90.90;;;;;;5036351;28;20003;-69
2022/10/13 05:12:30;;;;;;;;;;;12.10;91.00;;;;;;5038432;28;20010;-69
2022/10/13 05:14:58;;;;;;;;;;;12.10;91.00;;;;;;5042411;28;19976;-69
2022/10/13 05:17:25;;;;;;;;;;;12.20;91.00;;;;;;5032055;28;20006;-69
2022/10/13 05:19:51;;;;;;;;;;;12.20;91.00;;;;;;5043662;28;19992;-69
2022/10/13 05:22:18;;;;;;;;;;;12.20;91.00;;;;;;5036285;28;19975;-69
2022/10/13 05:24:45;;;;;;;;;;;12.20;90.90;;;;;;5039708;28;20007;-69
2022/10/13 05:27:12;;;;;;;;;;;12.20;90.90;;;;;;5032864;28;19979;-69
2022/10/13 05:29:39;;;;;;;;;;;12.20;90.90;;;;;;5030184;28;19992;-70
2022/10/13 05:32:07;;;;;;;;;;;12.30;90.90;;;;;;5038723;28;20019;-69
2022/10/13 05:34:34;;;;;;;;;;;12.30;90.90;;;;;;5032361;28;19975;-70
2022/10/13 05:37:00;;;;;;;;;;;12.30;90.90;;;;;;5043540;28;19995;-69
2022/10/13 05:39:27;;;;;;;;;;;12.30;90.90;;;;;;5029465;28;19996;-69
2022/10/13 05:41:54;;;;;;;;;;;12.30;91.00;;;;;;5042023;28;19975;-69
2022/10/13 05:44:20;;;;;;;;;;;12.20;90.90;;;;;;5042919;28;20364;-69
2022/10/13 05:46:47;;;;;;;;;;;12.20;91.00;;;;;;5030050;28;20097;-70
2022/10/13 05:49:15;;;;;;;;;;;12.20;91.00;;;;;;5041676;28;19996;-69
2022/10/13 05:51:43;;;;;;;;;;;12.20;91.00;;;;;;5037243;28;19976;-70
2022/10/13 05:54:12;;;;;;;;;;;12.20;91.00;;;;;;5033949;28;19980;-69
2022/10/13 05:56:41;;;;;;;;;;;12.20;91.10;;;;;;5032197;28;19976;-69
2022/10/13 05:59:09;;;;;;;;;;;12.20;91.10;;;;;;5042388;28;20296;-69
2022/10/13 06:01:37;;;;;;;;;;;12.20;91.10;;;;;;5031726;28;19999;-69
2022/10/13 06:04:06;;;;;;;;;;;12.20;91.10;;;;;;5044184;28;19980;-70
2022/10/13 06:06:34;;;;;;;;;;;12.20;91.10;;;;;;5036149;28;19980;-70
2022/10/13 06:09:01;;;;;;;;;;;12.20;91.10;;;;;;5047213;28;19999;-68
2022/10/13 06:11:28;;;;;;;;;;;12.20;91.10;;;;;;5036579;28;19976;-69
2022/10/13 06:13:54;;;;;;;;;;;12.20;91.10;;;;;;5043279;28;19975;-70
2022/10/13 06:16:21;;;;;;;;;;;12.20;91.10;;;;;;5045136;28;20515;-70
2022/10/13 06:18:47;;;;;;;;;;;12.10;91.10;;;;;;5042364;28;19975;-69
2022/10/13 06:21:14;;;;;;;;;;;12.10;91.10;;;;;;5043223;28;19983;-69
2022/10/13 06:23:42;;;;;;;;;;;12.20;91.20;;;;;;5048157;28;19976;-70
2022/10/13 06:26:08;;;;;;;;;;;12.10;91.20;;;;;;5042577;28;19996;-68
2022/10/13 06:28:35;;;;;;;;;;;12.10;91.20;;;;;;5038462;28;19983;-70
2022/10/13 06:31:03;;;;;;;;;;;12.10;91.30;;;;;;5041811;28;20088;-69
2022/10/13 06:33:30;;;;;;;;;;;12.10;91.30;;;;;;5037724;28;19983;-69
2022/10/13 06:36:00;;;;;;;;;;;12.10;91.30;;;;;;5036289;28;19983;-69
2022/10/13 06:38:26;;;;;;;;;;;12.10;91.40;;;;;;5036904;28;20441;-69
2022/10/13 06:40:54;;;;;;;;;;;12.10;91.40;;;;;;5035946;28;20003;-69
2022/10/13 06:43:21;;;;;;;;;;;12.10;91.40;;;;;;5045578;28;19980;-69
2022/10/13 06:45:47;;;;;;;;;;;12.10;91.50;;;;;;5039353;28;20018;-69
2022/10/13 06:48:14;;;;;;;;;;;12.10;91.50;;;;;;5042054;28;20010;-69
2022/10/13 06:50:40;;;;;;;;;;;12.10;91.60;;;;;;5041003;28;20361;-69
2022/10/13 06:53:07;;;;;;;;;;;12.10;91.60;;;;;;5037943;28;19983;-68
2022/10/13 06:55:33;;;;;;;;;;;12.10;91.60;;;;;;5035213;28;20436;-69
2022/10/13 06:58:01;;;;;;;;;;;12.10;91.60;;;;;;5044778;28;20490;-69
2022/10/13 07:00:28;;;;;;;;;;;12.10;91.60;;;;;;5035918;28;20003;-69
2022/10/13 07:02:55;;;;;;;;;;;12.10;91.60;;;;;;5036262;28;19982;-68
2022/10/13 07:05:21;;;;;;;;;;;12.10;91.70;;;;;;5040185;28;19991;-69
2022/10/13 07:07:48;;;;;;;;;;;12.10;91.70;;;;;;5046192;28;19980;-69
2022/10/13 07:10:14;;;;;;;;;;;12.10;91.70;;;;;;5037614;28;20000;-69
2022/10/13 07:12:41;;;;;;;;;;;12.00;91.70;;;;;;5045708;28;20450;-69
2022/10/13 07:15:09;;;;;;;;;;;12.10;91.70;;;;;;5046068;28;19979;-69
2022/10/13 07:17:36;;;;;;;;;;;12.10;91.70;;;;;;5041281;28;20023;-70
2022/10/13 07:20:03;;;;;;;;;;;12.10;91.70;;;;;;5041894;28;20017;-69
2022/10/13 07:22:30;;;;;;;;;;;12.10;91.80;;;;;;5042963;28;19976;-69
2022/10/13 07:24:57;;;;;;;;;;;12.10;91.80;;;;;;5041156;28;19999;-70
2022/10/13 07:27:24;;;;;;;;;;;12.10;91.80;;;;;;5036052;28;20078;-69
2022/10/13 07:29:50;;;;;;;;;;;12.10;91.80;;;;;;5041689;28;20590;-68
2022/10/13 07:32:18;;;;;;;;;;;12.10;91.80;;;;;;5035666;28;19999;-69
2022/10/13 07:34:45;;;;;;;;;;;12.10;91.80;;;;;;5043452;28;19976;-69
2022/10/13 07:37:11;;;;;;;;;;;12.10;91.80;;;;;;5037648;28;20003;-69
2022/10/13 07:39:38;;;;;;;;;;;12.10;91.70;;;;;;5040175;28;19992;-70
2022/10/13 07:42:04;;;;;;;;;;;12.10;91.70;;;;;;5037014;28;19979;-69
2022/10/13 07:44:31;;;;;;;;;;;12.10;91.70;;;;;;5046176;28;19986;-70
2022/10/13 07:46:57;;;;;;;;;;;12.20;91.70;;;;;;5035378;28;19998;-68
2022/10/13 07:49:25;;;;;;;;;;;12.10;91.70;;;;;;5044973;28;19995;-69
2022/10/13 07:51:52;;;;;;;;;;;12.20;92.10;;;;;;5039965;28;19976;-70
2022/10/13 07:54:18;;;;;;;;;;;12.20;91.70;;;;;;5033824;28;20020;-69
2022/10/13 07:56:45;;;;;;;;;;;12.20;91.70;;;;;;5040004;28;20437;-70
2022/10/13 07:59:12;;;;;;;;;;;12.20;91.70;;;;;;5043293;28;19995;-70
2022/10/13 08:01:39;;;;;;;;;;;12.30;91.70;;;;;;5040660;28;19996;-70
2022/10/13 08:04:06;;;;;;;;;;;12.20;91.60;;;;;;5042166;28;19984;-69
2022/10/13 08:06:34;;;;;;;;;;;12.30;91.60;;;;;;5037535;28;20097;-69
2022/10/13 08:09:02;;;;;;;;;;;12.30;91.60;;;;;;5044667;28;20000;-69
2022/10/13 08:11:29;;;;;;;;;;;12.30;91.60;;;;;;5044200;28;19976;-69
2022/10/13 08:13:59;;;;;;;;;;;12.30;91.60;;;;;;5045742;28;19976;-68
2022/10/13 08:16:26;;;;;;;;;;;12.30;91.60;;;;;;5033278;28;20123;-70
2022/10/13 08:18:52;;;;;;;;;;;12.40;91.50;;;;;;5040790;28;19995;-70
2022/10/13 08:21:21;;;;;;;;;;;12.30;91.50;;;;;;5041930;28;19984;-69
2022/10/13 08:23:49;;;;;;;;;;;12.40;91.50;;;;;;5044904;28;19976;-70
2022/10/13 08:26:17;;;;;;;;;;;12.40;91.50;;;;;;5038142;28;19995;-70
2022/10/13 08:28:44;;;;;;;;;;;12.40;91.60;;;;;;5045547;28;19980;-69
2022/10/13 08:31:11;;;;;;;;;;;12.40;91.60;;;;;;5040304;28;19995;-70
2022/10/13 08:33:37;;;;;;;;;;;12.40;91.60;;;;;;5038653;28;19976;-70
2022/10/13 08:36:04;;;;;;;;;;;12.40;91.70;;;;;;5037038;28;19984;-70
2022/10/13 08:38:30;;;;;;;;;;;12.50;91.70;;;;;;5037976;28;19976;-69
2022/10/13 08:40:58;;;;;;;;;;;12.50;91.80;;;;;;5041590;28;19976;-70
2022/10/13 08:43:25;;;;;;;;;;;12.50;91.90;;;;;;5041521;28;19987;-70
2022/10/13 08:45:55;;;;;;;;;;;12.50;91.90;;;;;;5033179;28;20408;-70
2022/10/13 08:48:24;;;;;;;;;;;12.50;91.80;;;;;;5040743;28;19979;-68
2022/10/13 08:50:52;;;;;;;;;;;12.50;91.80;;;;;;5038176;28;19992;-70
2022/10/13 08:53:21;;;;;;;;;;;12.60;91.80;;;;;;5034921;28;19986;-70
2022/10/13 08:55:48;;;;;;;;;;;12.60;91.70;;;;;;5034317;28;20356;-69
2022/10/13 08:58:18;;;;;;;;;;;12.60;91.70;;;;;;5035314;28;19979;-70
2022/10/13 09:00:45;;;;;;;;;;;12.60;91.60;;;;;;5036106;28;20516;-69
2022/10/13 09:03:19;;;;;;;;;;;12.60;91.60;;;;;;5033746;28;20352;-70
2022/10/13 09:05:48;;;;;;;;;;;12.60;91.50;;;;;;5038835;28;19999;-70
2022/10/13 09:08:19;;;;;;;;;;;12.60;91.50;;;;;;5040548;28;20443;-70
2022/10/13 09:10:46;;;;;;;;;;;12.70;91.50;;;;;;5035209;28;19992;-70
2022/10/13 09:13:12;;;;;;;;;;;12.70;91.50;;;;;;5044317;28;20471;-69
2022/10/13 09:15:44;;;;;;;;;;;12.70;91.50;;;;;;5039871;28;20490;-70
2022/10/13 09:18:11;;;;;;;;;;;12.70;91.50;;;;;;5034421;28;19987;-70
2022/10/13 09:20:38;;;;;;;;;;;12.70;91.50;;;;;;5043892;28;20413;-70
2022/10/13 09:23:07;;;;;;;;;;;12.80;91.50;;;;;;5041645;28;19986;-69
2022/10/13 09:25:39;;;;;;;;;;;12.80;91.60;;;;;;5044778;28;19992;-70
2022/10/13 09:28:10;;;;;;;;;;;12.80;91.70;;;;;;5042559;28;19980;-70
2022/10/13 09:30:37;;;;;;;;;;;12.80;91.70;;;;;;5041627;28;20490;-70
2022/10/13 09:33:16;;;;;;;;;;;12.80;91.80;;;;;;5037649;28;20083;-70
2022/10/13 09:35:44;;;;;;;;;;;12.80;91.90;;;;;;5037955;28;19983;-70
2022/10/13 09:38:11;;;;;;;;;;;12.80;91.90;;;;;;5035228;28;19980;-70
2022/10/13 09:40:39;;;;;;;;;;;12.80;91.90;;;;;;5036246;28;20443;-70
2022/10/13 09:43:15;;;;;;;;;;;12.80;92.10;;;;;;5044178;28;20082;-69
2022/10/13 09:45:42;;;;;;;;;;;12.80;92.30;;;;;;5032202;28;19999;-70
2022/10/13 09:48:17;;;;;;;;;;;12.90;92.40;;;;;;5037621;28;19980;-69
2022/10/13 09:50:49;;;;;;;;;;;12.90;92.40;;;;;;5038015;28;20026;-70
2022/10/13 09:53:20;;;;;;;;;;;12.90;92.40;;;;;;5034313;28;19979;-69
2022/10/13 09:55:48;;;;;;;;;;;12.90;92.30;;;;;;5032239;28;19983;-70
2022/10/13 09:58:17;;;;;;;;;;;12.90;92.20;;;;;;5040998;28;19995;-70
2022/10/13 10:00:44;;;;;;;;;;;12.90;92.10;;;;;;5034741;28;19996;-70
2022/10/13 10:03:15;;;;;;;;;;;12.90;92.10;;;;;;5033822;28;19980;-69
2022/10/13 10:05:44;;;;;;;;;;;12.90;92.00;;;;;;5040025;28;20444;-70
2022/10/13 10:08:14;;;;;;;;;;;12.90;91.90;;;;;;5040294;28;19976;-69
2022/10/13 10:10:41;;;;;;;;;;;13.00;91.90;;;;;;5033317;28;19998;-70
2022/10/13 10:13:10;;;;;;;;;;;13.00;91.80;;;;;;5043934;28;19979;-69
2022/10/13 10:15:40;;;;;;;;;;;13.00;91.70;;;;;;5033480;28;19992;-70
2022/10/13 10:18:08;;;;;;;;;;;13.00;91.60;;;;;;5030368;28;19980;-71
2022/10/13 10:20:49;;;;;;;;;;;13.00;91.50;;;;;;5042932;28;19991;-71
2022/10/13 10:23:21;;;;;;;;;;;13.10;91.50;;;;;;5040943;28;19998;-70
2022/10/13 10:25:50;;;;;;;;;;;13.10;91.50;;;;;;5038186;28;19999;-70
2022/10/13 10:28:26;;;;;;;;;;;13.10;91.40;;;;;;5032896;28;20004;-70
2022/10/13 10:30:57;;;;;;;;;;;13.20;91.50;;;;;;5033995;28;20003;-70
2022/10/13 10:33:29;;;;;;;;;;;13.20;91.50;;;;;;5038811;28;20167;-70
2022/10/13 10:35:58;;;;;;;;;;;13.20;91.50;;;;;;5043236;28;20497;-70
2022/10/13 10:38:33;;;;;;;;;;;13.20;91.40;;;;;;5042254;28;20015;-70
2022/10/13 10:41:04;;;;;;;;;;;13.30;91.50;;;;;;5034209;28;19986;-69
2022/10/13 10:43:41;;;;;;;;;;;13.30;91.50;;;;;;5044049;28;20408;-70
2022/10/13 10:46:13;;;;;;;;;;;13.30;91.50;;;;;;5034569;28;19999;-69
2022/10/13 10:48:39;;;;;;;;;;;13.30;91.50;;;;;;5035240;28;19976;-70
2022/10/13 10:51:07;;;;;;;;;;;13.40;91.50;;;;;;5042709;28;19980;-71
2022/10/13 10:53:38;;;;;;;;;;;13.40;91.50;;;;;;5038011;28;19982;-70
2022/10/13 10:56:08;;;;;;;;;;;13.40;91.50;;;;;;5041405;28;19987;-69
2022/10/13 10:58:38;;;;;;;;;;;13.40;91.40;;;;;;5039780;28;19976;-70
2022/10/13 11:01:06;;;;;;;;;;;13.40;91.40;;;;;;5046813;28;19995;-70
2022/10/13 11:03:37;;;;;;;;;;;13.50;91.50;;;;;;5035956;28;20004;-70
2022/10/13 11:06:04;;;;;;;;;;;13.50;91.90;;;;;;5044099;28;19992;-68
2022/10/13 11:08:40;;;;;;;;;;;13.50;91.60;;;;;;5044051;28;19976;-70
2022/10/13 11:11:30;;;;;;;;;;;13.50;91.50;;;;;;5041007;28;20093;-71
2022/10/13 11:13:58;;;;;;;;;;;13.60;91.50;;;;;;5041618;28;19976;-68
2022/10/13 11:16:29;;;;;;;;;;;13.70;91.50;;;;;;5033812;28;19995;-69
2022/10/13 11:19:04;;;;;;;;;;;13.70;91.50;;;;;;5033470;28;20443;-70
2022/10/13 11:21:49;;;;;;;;;;;13.70;91.50;;;;;;5043711;28;20328;-70
2022/10/13 11:24:31;;;;;;;;;;;13.70;91.40;;;;;;5043262;28;19979;-70
2022/10/13 11:27:18;;;;;;;;;;;13.70;91.40;;;;;;5042477;28;19992;-70
2022/10/13 11:29:53;;;;;;;;;;;13.80;91.50;;;;;;5039952;28;20644;-70
2022/10/13 11:32:41;;;;;;;;;;;13.80;91.40;;;;;;5036842;28;20002;-70
2022/10/13 11:35:18;;;;;;;;;;;13.80;91.50;;;;;;5045515;28;19980;-68
2022/10/13 11:37:46;;;;;;;;;;;13.80;91.40;;;;;;5045317;28;19976;-70
2022/10/13 11:40:30;;;;;;;;;;;13.90;91.50;;;;;;5043122;28;19992;-70
2022/10/13 11:43:07;;;;;;;;;;;13.80;91.70;;;;;;5042417;28;20209;-70
2022/10/13 11:46:03;;;;;;;;;;;13.90;91.60;;;;;;5032018;28;19991;-70
2022/10/13 11:48:38;;;;;;;;;;;13.90;91.50;;;;;;4992562;28;19977;-70
2022/10/13 11:51:10;;;;;;;;;;;13.90;91.50;;;;;;5028676;28;20019;-71
2022/10/13 11:53:41;;;;;;;;;;;14.00;91.50;;;;;;5034675;28;20422;-70
2022/10/13 11:56:18;;;;;;;;;;;14.00;91.40;;;;;;5039029;28;19983;-70
2022/10/13 11:58:46;;;;;;;;;;;14.10;91.40;;;;;;5039309;28;19976;-70
2022/10/13 12:01:13;;;;;;;;;;;14.10;91.40;;;;;;5038408;28;20379;-70
2022/10/13 12:03:41;;;;;;;;;;;14.20;91.70;;;;;;5038684;28;20352;-70
2022/10/13 12:06:20;;;;;;;;;;;14.20;91.60;;;;;;5041669;28;19992;-69
2022/10/13 12:08:47;;;;;;;;;;;14.20;91.50;;;;;;5045033;28;19975;-70
2022/10/13 12:11:19;;;;;;;;;;;14.20;91.40;;;;;;5038202;28;20019;-70
2022/10/13 12:13:47;;;;;;;;;;;14.30;91.30;;;;;;5046230;28;19982;-70
2022/10/13 12:16:14;;;;;;;;;;;14.30;91.30;;;;;;5044612;28;19995;-70
2022/10/13 12:18:41;;;;;;;;;;;14.40;91.40;;;;;;5035902;28;19976;-70
2022/10/13 12:21:10;;;;;;;;;;;14.40;91.40;;;;;;5041912;28;20003;-69
2022/10/13 12:23:37;;;;;;;;;;;14.50;91.40;;;;;;5045678;28;20439;-70
2022/10/13 12:26:03;;;;;;;;;;;14.50;91.30;;;;;;5033142;28;19991;-70
2022/10/13 12:28:31;;;;;;;;;;;14.50;91.20;;;;;;5038237;28;19972;-70
2022/10/13 12:30:59;;;;;;;;;;;14.60;91.30;;;;;;5039315;28;19995;-70
2022/10/13 12:33:28;;;;;;;;;;;14.60;91.20;;;;;;5034135;28;20355;-70
2022/10/13 12:35:54;;;;;;;;;;;14.60;91.20;;;;;;5045070;28;19975;-70
2022/10/13 12:38:22;;;;;;;;;;;14.60;91.20;;;;;;5043676;28;19979;-70
2022/10/13 12:40:49;;;;;;;;;;;14.70;91.10;;;;;;5039540;28;19991;-70
2022/10/13 12:43:17;;;;;;;;;;;14.60;91.10;;;;;;5038856;28;19991;-69
2022/10/13 12:45:44;;;;;;;;;;;14.60;91.00;;;;;;5032778;28;19999;-70
2022/10/13 12:48:25;;;;;;;;;;;14.70;91.10;;;;;;5039867;28;19996;-69
2022/10/13 12:50:53;;;;;;;;;;;14.70;91.00;;;;;;5043755;28;19998;-71
2022/10/13 12:53:23;;;;;;;;;;;14.70;91.20;;;;;;5035362;28;19980;-69
2022/10/13 12:55:52;;;;;;;;;;;14.70;91.30;;;;;;5038321;28;19976;-70
2022/10/13 12:58:19;;;;;;;;;;;14.70;91.20;;;;;;5035013;28;19980;-70
2022/10/13 13:00:54;;;;;;;;;;;14.80;91.30;;;;;;5040672;28;20007;-70
2022/10/13 13:03:23;;;;;;;;;;;14.70;91.30;;;;;;5035449;28;19986;-70
2022/10/13 13:05:50;;;;;;;;;;;14.80;91.30;;;;;;5042168;28;19983;-69
2022/10/13 13:08:24;;;;;;;;;;;14.80;91.20;;;;;;5042420;28;20007;-70
2022/10/13 13:10:53;;;;;;;;;;;14.80;91.20;;;;;;5036550;28;20031;-70
2022/10/13 13:13:22;;;;;;;;;;;14.80;91.20;;;;;;5044652;28;19980;-70
2022/10/13 13:15:48;;;;;;;;;;;14.80;91.20;;;;;;5034290;28;19999;-70
2022/10/13 13:18:40;;;;;;;;;;;14.90;91.20;;;;;;5036994;28;19979;-70
2022/10/13 13:21:07;;;;;;;;;;;14.90;91.20;;;;;;5024999;28;19990;-68
2022/10/13 13:23:35;;;;;;;;;;;14.90;91.20;;;;;;5040114;28;19976;-71
2022/10/13 13:26:04;;;;;;;;;;;14.90;91.60;;;;;;5044679;28;19980;-70
2022/10/13 13:28:31;;;;;;;;;;;14.90;91.30;;;;;;5036085;28;20459;-69
2022/10/13 13:30:58;;;;;;;;;;;14.90;91.20;;;;;;5042721;28;19998;-69
2022/10/13 13:33:24;;;;;;;;;;;15.00;91.30;;;;;;5034592;28;20428;-70
2022/10/13 13:35:51;;;;;;;;;;;15.00;91.30;;;;;;5037631;28;19988;-70
2022/10/13 13:38:18;;;;;;;;;;;15.00;91.20;;;;;;5034369;28;19990;-70
2022/10/13 13:40:46;;;;;;;;;;;15.00;91.20;;;;;;5032333;28;20003;-70
2022/10/13 13:43:12;;;;;;;;;;;15.00;91.20;;;;;;5041461;28;20498;-70
2022/10/13 13:45:39;;;;;;;;;;;15.10;91.20;;;;;;5038653;28;20498;-70
2022/10/13 13:48:06;;;;;;;;;;;15.10;91.20;;;;;;5037819;28;19996;-70
2022/10/13 13:50:33;;;;;;;;;;;15.00;91.30;;;;;;5033000;28;20079;-70
2022/10/13 13:53:00;;;;;;;;;;;15.10;91.50;;;;;;5034032;28;19976;-70
2022/10/13 13:55:28;;;;;;;;;;;15.10;91.20;;;;;;5032808;28;20075;-70
2022/10/13 13:57:57;;;;;;;;;;;15.10;91.60;;;;;;5038967;28;19999;-70
2022/10/13 14:00:23;;;;;;;;;;;15.10;91.30;;;;;;5037736;28;19995;-69
2022/10/13 14:02:50;;;;;;;;;;;15.20;91.30;;;;;;5037791;28;19979;-70
2022/10/13 14:05:17;;;;;;;;;;;15.20;91.30;;;;;;5033045;28;19980;-70
2022/10/13 14:07:43;;;;;;;;;;;15.20;91.30;;;;;;5044436;28;19991;-70
2022/10/13 14:10:10;;;;;;;;;;;15.20;91.30;;;;;;5035122;28;20003;-69
2022/10/13 14:12:36;;;;;;;;;;;15.20;91.20;;;;;;5044557;28;19983;-70
2022/10/13 14:15:05;;;;;;;;;;;15.20;91.20;;;;;;5034337;28;19980;-70
2022/10/13 14:17:32;;;;;;;;;;;15.20;91.20;;;;;;5038445;28;19999;-70
2022/10/13 14:19:58;;;;;;;;;;;15.30;91.30;;;;;;5042666;28;19992;-70
2022/10/13 14:22:25;;;;;;;;;;;15.30;91.30;;;;;;5039344;28;19979;-69
2022/10/13 14:24:51;;;;;;;;;;;15.30;91.20;;;;;;5040860;28;19982;-71